createdAt,value
2022-09-04T00:00:49.571Z,1.83
2022-09-04T00:03:43.766Z,2.17
2022-09-04T00:06:38.291Z,2.37
2022-09-04T00:09:29.327Z,2.13
2022-09-04T00:12:21.729Z,2.40
2022-09-04T00:15:14.675Z,2.13
2022-09-04T00:18:07.617Z,2.13
2022-09-04T00:20:59.387Z,2.60
2022-09-04T00:23:52.319Z,1.80
2022-09-04T00:26:45.324Z,2.53
2022-09-04T00:29:40.988Z,2.87
2022-09-04T00:32:32.436Z,2.70
2022-09-04T00:35:24.091Z,2.93
2022-09-04T00:38:17.078Z,2.50
2022-09-04T00:41:12.270Z,2.20
2022-09-04T00:44:34.045Z,2.33
2022-09-04T00:47:28.471Z,2.33
2022-09-04T00:50:30.211Z,2.37
2022-09-04T00:53:29.386Z,2.40
2022-09-04T00:56:37.901Z,2.37
2022-09-04T00:59:35.553Z,2.10
2022-09-04T01:02:31.138Z,2.60
2022-09-04T01:05:31.103Z,2.30
2022-09-04T01:08:24.138Z,2.70
2022-09-04T01:11:19.523Z,2.30
2022-09-04T01:14:13.683Z,2.00
2022-09-04T01:17:09.262Z,2.20
2022-09-04T01:20:03.635Z,2.13
2022-09-04T01:23:16.718Z,2.60
2022-09-04T01:26:11.096Z,2.30
2022-09-04T01:29:07.223Z,2.67
2022-09-04T01:31:58.587Z,2.13
2022-09-04T01:34:52.536Z,2.20
2022-09-04T01:37:47.419Z,2.30
2022-09-04T01:40:39.583Z,2.50
2022-09-04T01:43:31.561Z,2.67
2022-09-04T01:46:25.547Z,2.17
2022-09-04T01:49:20.176Z,2.20
2022-09-04T01:52:14.500Z,2.60
2022-09-04T01:55:08.318Z,2.77
2022-09-04T01:58:04.992Z,2.47
2022-09-04T02:01:00.508Z,2.53
2022-09-04T02:03:56.056Z,2.80
2022-09-04T02:06:50.361Z,2.37
2022-09-04T02:09:45.100Z,2.90
2022-09-04T02:12:36.111Z,2.73
2022-09-04T02:15:31.530Z,2.77
2022-09-04T02:18:26.779Z,2.43
2022-09-04T02:21:19.684Z,2.70
2022-09-04T02:24:13.244Z,3.00
2022-09-04T02:27:04.838Z,2.80
2022-09-04T02:29:54.947Z,2.50
2022-09-04T02:32:47.493Z,2.73
2022-09-04T02:35:40.904Z,2.90
2022-09-04T02:38:32.683Z,2.43
2022-09-04T02:41:26.535Z,3.33
2022-09-04T02:44:22.581Z,3.13
2022-09-04T02:47:15.262Z,2.50
2022-09-04T02:50:09.199Z,2.90
2022-09-04T02:53:03.047Z,2.97
2022-09-04T02:55:58.570Z,3.30
2022-09-04T02:58:54.477Z,2.60
2022-09-04T03:01:49.893Z,3.10
2022-09-04T03:04:49.940Z,3.13
2022-09-04T03:07:41.806Z,2.60
2022-09-04T03:10:34.272Z,3.03
2022-09-04T03:13:25.335Z,3.00
2022-09-04T03:16:17.997Z,2.80
2022-09-04T03:19:10.520Z,3.00
2022-09-04T03:22:03.331Z,2.93
2022-09-04T03:25:11.332Z,3.10
2022-09-04T03:28:02.113Z,3.00
2022-09-04T03:30:51.280Z,2.90
2022-09-04T03:33:41.334Z,2.83
2022-09-04T03:36:35.641Z,3.10
2022-09-04T03:39:28.199Z,3.33
2022-09-04T03:42:20.101Z,3.17
2022-09-04T03:45:18.135Z,3.10
2022-09-04T03:48:15.523Z,3.60
2022-09-04T03:51:10.838Z,3.10
2022-09-04T03:54:05.324Z,2.80
2022-09-04T03:57:09.138Z,3.20
2022-09-04T04:00:06.019Z,2.60
2022-09-04T04:03:18.739Z,3.13
2022-09-04T04:06:13.477Z,3.30
2022-09-04T04:09:19.856Z,3.50
2022-09-04T04:12:31.670Z,3.40
2022-09-04T04:15:29.174Z,3.40
2022-09-04T04:18:31.255Z,3.10
2022-09-04T04:21:24.390Z,3.70
2022-09-04T04:24:29.922Z,3.23
2022-09-04T04:27:25.630Z,3.57
2022-09-04T04:30:16.045Z,3.50
2022-09-04T04:33:22.064Z,3.10
2022-09-04T04:36:17.634Z,3.30
2022-09-04T04:39:16.174Z,4.10
2022-09-04T04:42:18.363Z,3.70
2022-09-04T04:45:30.566Z,3.47
2022-09-04T04:48:37.930Z,3.50
2022-09-04T04:51:40.468Z,3.90
2022-09-04T04:54:36.589Z,3.27
2022-09-04T04:57:30.254Z,3.10
2022-09-04T05:00:26.844Z,3.20
2022-09-04T05:03:21.560Z,3.83
2022-09-04T05:06:13.512Z,3.70
2022-09-04T05:09:09.292Z,5.00
2022-09-04T05:12:01.163Z,3.83
2022-09-04T05:14:53.633Z,3.87
2022-09-04T05:17:49.035Z,3.47
2022-09-04T05:20:40.852Z,3.37
2022-09-04T05:23:33.763Z,3.30
2022-09-04T05:26:28.490Z,3.47
2022-09-04T05:29:21.007Z,3.10
2022-09-04T05:32:15.134Z,3.40
2022-09-04T05:35:09.759Z,3.67
2022-09-04T05:38:03.241Z,3.37
2022-09-04T05:40:59.839Z,3.07
2022-09-04T05:43:57.957Z,3.30
2022-09-04T05:46:51.922Z,3.60
2022-09-04T05:49:52.107Z,3.53
2022-09-04T05:52:48.307Z,3.43
2022-09-04T05:56:00.978Z,3.03
2022-09-04T05:59:07.410Z,3.67
2022-09-04T06:02:11.061Z,2.70
2022-09-04T06:05:19.207Z,2.43
2022-09-04T06:08:14.788Z,2.60
2022-09-04T06:11:07.684Z,3.03
2022-09-04T06:14:02.841Z,3.33
2022-09-04T06:16:58.869Z,2.87
2022-09-04T06:19:55.432Z,3.07
2022-09-04T06:23:03.258Z,2.73
2022-09-04T06:26:04.772Z,2.60
2022-09-04T06:29:05.877Z,2.57
2022-09-04T06:32:12.177Z,2.73
2022-09-04T06:35:15.957Z,3.77
2022-09-04T06:38:14.442Z,2.40
2022-09-04T06:41:08.834Z,3.20
2022-09-04T06:44:01.727Z,2.97
2022-09-04T06:46:55.015Z,2.63
2022-09-04T06:49:48.954Z,3.27
2022-09-04T06:52:45.006Z,2.93
2022-09-04T06:55:40.320Z,2.80
2022-09-04T06:58:45.871Z,3.27
2022-09-04T07:01:40.754Z,2.90
2022-09-04T07:04:39.473Z,3.10
2022-09-04T07:07:31.907Z,2.67
2022-09-04T07:10:24.107Z,2.87
2022-09-04T07:13:28.694Z,2.30
2022-09-04T07:16:22.472Z,2.37
2022-09-04T07:19:38.139Z,2.90
2022-09-04T07:22:36.744Z,2.97
2022-09-04T07:25:28.578Z,1.83
2022-09-04T07:28:32.263Z,2.57
2022-09-04T07:31:25.439Z,1.73
2022-09-04T07:34:18.511Z,2.45
2022-09-04T07:37:12.572Z,2.60
2022-09-04T07:40:09.673Z,2.53
2022-09-04T07:43:01.361Z,2.88
2022-09-04T07:45:54.796Z,3.17
2022-09-04T07:48:48.046Z,3.33
2022-09-04T07:51:39.377Z,2.33
2022-09-04T07:54:44.190Z,2.53
2022-09-04T07:57:48.083Z,2.80
2022-09-04T08:00:42.417Z,3.20
2022-09-04T08:03:53.713Z,2.70
2022-09-04T08:06:47.440Z,3.33
2022-09-04T08:09:43.077Z,2.75
2022-09-04T08:12:42.563Z,3.78
2022-09-04T08:15:42.168Z,3.47
2022-09-04T08:18:53.174Z,3.45
2022-09-04T08:21:43.330Z,2.80
2022-09-04T08:24:53.180Z,3.50
2022-09-04T08:27:49.886Z,4.43
2022-09-04T08:30:41.274Z,3.42
2022-09-04T08:33:38.003Z,3.53
2022-09-04T08:36:33.276Z,3.83
2022-09-04T08:39:25.800Z,4.00
2022-09-04T08:42:32.626Z,3.50
2022-09-04T08:45:48.345Z,3.53
2022-09-04T08:48:54.811Z,3.10
2022-09-04T08:51:58.514Z,3.58
2022-09-04T08:55:07.910Z,3.40
2022-09-04T08:58:12.461Z,4.00
2022-09-04T09:01:25.382Z,3.50
2022-09-04T09:04:28.968Z,3.92
2022-09-04T09:07:27.949Z,4.05
2022-09-04T09:10:37.637Z,4.22
2022-09-04T09:13:47.857Z,3.47
2022-09-04T09:16:43.707Z,3.92
2022-09-04T09:19:44.769Z,5.57
2022-09-04T09:22:51.588Z,4.13
2022-09-04T09:25:44.068Z,4.50
2022-09-04T09:28:54.802Z,5.50
2022-09-04T09:32:07.095Z,5.20
2022-09-04T09:35:10.796Z,4.38
2022-09-04T09:38:19.893Z,4.95
2022-09-04T09:41:29.759Z,4.78
2022-09-04T09:44:42.600Z,4.47
2022-09-04T09:47:52.234Z,6.10
2022-09-04T09:50:53.198Z,4.35
2022-09-04T09:54:06.068Z,4.35
2022-09-04T09:57:12.608Z,4.20
2022-09-04T10:00:09.779Z,4.15
2022-09-04T10:03:24.326Z,4.60
2022-09-04T10:06:19.287Z,4.43
2022-09-04T10:09:25.720Z,4.30
2022-09-04T10:12:31.626Z,4.28
2022-09-04T10:15:39.126Z,4.32
2022-09-04T10:18:53.166Z,4.32
2022-09-04T10:21:57.002Z,4.80
2022-09-04T10:24:54.808Z,4.38
2022-09-04T10:28:02.051Z,3.88
2022-09-04T10:31:21.122Z,4.40
2022-09-04T10:34:30.240Z,3.58
2022-09-04T10:37:27.275Z,3.80
2022-09-04T10:40:43.777Z,4.25
2022-09-04T10:43:40.969Z,7.32
2022-09-04T10:46:35.980Z,3.53
2022-09-04T10:49:33.662Z,3.67
2022-09-04T10:52:32.455Z,3.92
2022-09-04T10:55:36.316Z,3.30
2022-09-04T10:58:39.802Z,3.28
2022-09-04T11:01:47.676Z,3.58
2022-09-04T11:04:53.645Z,3.35
2022-09-04T11:08:01.034Z,3.30
2022-09-04T11:10:55.799Z,2.95
2022-09-04T11:14:06.538Z,3.38
2022-09-04T11:17:15.045Z,3.00
2022-09-04T11:20:19.156Z,3.38
2022-09-04T11:23:35.146Z,2.65
2022-09-04T11:26:37.931Z,3.45
2022-09-04T11:29:32.486Z,3.28
2022-09-04T11:32:37.810Z,3.40
2022-09-04T11:35:36.201Z,3.50
2022-09-04T11:38:39.099Z,3.35
2022-09-04T11:41:44.144Z,4.05
2022-09-04T11:44:47.870Z,3.63
2022-09-04T11:47:54.394Z,4.07
2022-09-04T11:50:56.333Z,4.10
2022-09-04T11:53:53.010Z,4.18
2022-09-04T11:56:46.621Z,4.35
2022-09-04T11:59:44.848Z,3.80
2022-09-04T12:02:51.640Z,3.25
2022-09-04T12:05:59.473Z,3.45
2022-09-04T12:09:12.531Z,7.07
2022-09-04T12:12:11.530Z,4.30
2022-09-04T12:15:22.195Z,4.25
2022-09-04T12:18:33.686Z,5.10
2022-09-04T12:21:31.709Z,4.53
2022-09-04T12:24:45.018Z,4.72
2022-09-04T12:27:55.347Z,4.78
2022-09-04T12:30:50.968Z,4.43
2022-09-04T12:33:51.631Z,4.28
2022-09-04T12:36:59.236Z,4.05
2022-09-04T12:39:56.732Z,4.35
2022-09-04T12:42:50.564Z,5.15
2022-09-04T12:45:44.579Z,4.07
2022-09-04T12:48:37.508Z,3.67
2022-09-04T12:51:28.312Z,3.00
2022-09-04T12:54:27.677Z,3.50
2022-09-04T12:57:24.432Z,3.60
2022-09-04T13:00:17.388Z,3.17
2022-09-04T13:03:13.178Z,3.42
2022-09-04T13:06:07.734Z,3.85
2022-09-04T13:09:06.306Z,3.38
2022-09-04T13:12:04.016Z,3.00
2022-09-04T13:15:02.723Z,2.83
2022-09-04T13:17:58.192Z,2.63
2022-09-04T13:20:51.429Z,2.88
2022-09-04T13:23:48.865Z,2.85
2022-09-04T13:26:46.825Z,2.35
2022-09-04T13:29:40.604Z,2.78
2022-09-04T13:32:51.352Z,3.10
2022-09-04T13:35:49.423Z,2.97
2022-09-04T13:38:56.194Z,2.65
2022-09-04T13:42:11.904Z,2.78
2022-09-04T13:45:05.510Z,2.17
2022-09-04T13:47:56.475Z,2.80
2022-09-04T13:50:49.247Z,2.25
2022-09-04T13:53:42.752Z,2.85
2022-09-04T13:56:34.080Z,2.75
2022-09-04T13:59:23.852Z,3.03
2022-09-04T14:02:15.266Z,3.10
2022-09-04T14:05:07.494Z,3.25
2022-09-04T14:08:02.374Z,3.85
2022-09-04T14:11:09.274Z,2.45
2022-09-04T14:14:15.021Z,3.30
2022-09-04T14:17:06.915Z,3.08
2022-09-04T14:20:01.275Z,3.10
2022-09-04T14:22:56.672Z,3.72
2022-09-04T14:25:53.882Z,3.40
2022-09-04T14:28:45.637Z,3.20
2022-09-04T14:31:38.686Z,2.40
2022-09-04T14:34:38.708Z,2.75
2022-09-04T14:37:42.550Z,2.38
2022-09-04T14:40:31.947Z,2.70
2022-09-04T14:43:25.459Z,2.50
2022-09-04T14:46:21.770Z,2.47
2022-09-04T14:49:12.446Z,2.85
2022-09-04T14:52:04.141Z,2.17
2022-09-04T14:54:54.410Z,2.35
2022-09-04T14:57:45.726Z,1.88
2022-09-04T15:00:51.936Z,2.22
2022-09-04T15:03:46.170Z,2.25
2022-09-04T15:06:49.292Z,2.80
2022-09-04T15:09:47.639Z,2.67
2022-09-04T15:12:38.526Z,2.63
2022-09-04T15:15:31.643Z,2.70
2022-09-04T15:18:26.523Z,1.95
2022-09-04T15:21:21.262Z,2.33
2022-09-04T15:24:26.548Z,2.03
2022-09-04T15:27:19.911Z,1.92
2022-09-04T15:30:10.602Z,2.42
2022-09-04T15:33:05.231Z,2.53
2022-09-04T15:36:02.031Z,1.92
2022-09-04T15:38:53.018Z,2.25
2022-09-04T15:41:43.893Z,2.35
2022-09-04T15:44:35.393Z,2.40
2022-09-04T15:47:40.790Z,2.60
2022-09-04T15:50:31.653Z,2.50
2022-09-04T15:53:27.064Z,2.60
2022-09-04T15:56:29.262Z,2.78
2022-09-04T15:59:20.327Z,2.22
2022-09-04T16:02:13.077Z,2.80
2022-09-04T16:05:05.532Z,2.40
2022-09-04T16:08:03.468Z,2.67
2022-09-04T16:11:00.758Z,2.70
2022-09-04T16:13:58.203Z,2.88
2022-09-04T16:16:49.361Z,2.72
2022-09-04T16:19:44.291Z,2.35
2022-09-04T16:22:36.295Z,2.55
2022-09-04T16:25:28.859Z,2.28
2022-09-04T16:28:26.601Z,2.35
2022-09-04T16:31:16.176Z,2.45
2022-09-04T16:34:08.744Z,3.13
2022-09-04T16:37:01.582Z,3.00
2022-09-04T16:39:57.995Z,2.58
2022-09-04T16:42:49.983Z,2.10
2022-09-04T16:45:41.751Z,2.65
2022-09-04T16:48:33.725Z,2.45
2022-09-04T16:51:40.442Z,2.05
2022-09-04T16:54:32.494Z,2.53
2022-09-04T16:57:22.371Z,2.00
2022-09-04T17:00:13.530Z,2.60
2022-09-04T17:03:09.339Z,2.40
2022-09-04T17:06:01.593Z,2.53
2022-09-04T17:08:53.929Z,2.45
2022-09-04T17:11:46.266Z,2.10
2022-09-04T17:14:47.458Z,2.40
2022-09-04T17:17:40.980Z,2.50
2022-09-04T17:21:26.117Z,2.60
2022-09-04T17:29:02.864Z,2.43
2022-09-04T17:29:18.803Z,2.17
2022-09-04T17:30:09.557Z,2.30
2022-09-04T17:37:07.908Z,2.47
2022-09-04T17:40:40.357Z,2.90
2022-09-04T17:40:41.015Z,2.80
2022-09-04T17:43:11.192Z,3.00
2022-09-04T17:46:05.049Z,3.03
2022-09-04T17:48:54.380Z,2.60
2022-09-04T17:51:49.055Z,3.33
2022-09-04T17:54:41.010Z,2.67
2022-09-04T17:57:34.302Z,3.17
2022-09-04T18:00:25.014Z,3.10
2022-09-04T18:03:17.907Z,3.27
2022-09-04T18:06:08.166Z,3.30
2022-09-04T18:09:00.345Z,3.53
2022-09-04T18:12:00.228Z,3.00
2022-09-04T18:15:14.922Z,3.07
2022-09-04T18:18:14.860Z,3.60
2022-09-04T18:21:09.929Z,3.07
2022-09-04T18:24:02.222Z,3.10
2022-09-04T18:26:52.932Z,3.40
2022-09-04T18:32:16.885Z,2.70
2022-09-04T18:37:16.839Z,3.47
2022-09-04T18:37:24.423Z,3.17
2022-09-04T18:39:28.801Z,2.57
2022-09-04T18:48:17.304Z,2.60
2022-09-04T18:50:29.800Z,3.10
2022-09-04T18:50:46.882Z,2.97
2022-09-04T18:52:01.844Z,2.80
2022-09-04T18:54:54.262Z,2.60
2022-09-04T18:57:49.152Z,3.03
2022-09-04T19:00:41.025Z,3.00
2022-09-04T19:03:33.667Z,3.10
2022-09-04T19:06:32.312Z,3.30
2022-09-04T19:09:23.812Z,3.30
2022-09-04T19:12:15.363Z,3.37
2022-09-04T19:15:04.743Z,3.20
2022-09-04T19:17:56.333Z,2.70
2022-09-04T19:20:48.078Z,2.90
2022-09-04T19:23:39.335Z,3.50
2022-09-04T19:26:34.768Z,2.60
2022-09-04T19:29:28.273Z,2.73
2022-09-04T19:32:22.462Z,3.13
2022-09-04T19:35:15.397Z,3.10
2022-09-04T19:41:46.119Z,3.40
2022-09-04T19:46:01.096Z,3.10
2022-09-04T19:46:18.624Z,3.77
2022-09-04T19:47:47.568Z,3.60
2022-09-04T19:53:23.203Z,3.27
2022-09-04T19:53:52.678Z,3.90
2022-09-04T19:57:30.930Z,3.00
2022-09-04T20:00:42.444Z,2.97
2022-09-04T20:03:29.760Z,3.57
2022-09-04T20:06:22.435Z,2.80
2022-09-04T20:09:14.229Z,3.30
2022-09-04T20:12:06.605Z,3.17
2022-09-04T20:14:57.632Z,3.50
2022-09-04T20:17:53.778Z,3.17
2022-09-04T20:20:54.639Z,3.10
2022-09-04T20:23:47.427Z,3.70
2022-09-04T20:26:38.389Z,3.33
2022-09-04T20:29:31.992Z,4.07
2022-09-04T20:32:22.799Z,3.90
2022-09-04T20:35:18.083Z,3.87
2022-09-04T20:38:23.326Z,3.20
2022-09-04T20:41:18.246Z,3.13
2022-09-04T20:44:13.372Z,3.30
2022-09-04T20:51:53.844Z,3.40
2022-09-04T20:52:49.855Z,3.30
2022-09-04T20:53:37.193Z,3.20
2022-09-04T20:58:11.314Z,2.80
2022-09-04T21:03:13.349Z,3.77
2022-09-04T21:03:19.031Z,3.30
2022-09-04T21:06:22.602Z,3.57
2022-09-04T21:09:18.172Z,3.57
2022-09-04T21:12:15.882Z,3.17
2022-09-04T21:15:08.586Z,3.97
2022-09-04T21:18:15.364Z,2.80
2022-09-04T21:21:11.735Z,3.13
2022-09-04T21:24:13.080Z,3.30
2022-09-04T21:27:14.150Z,3.50
2022-09-04T21:30:08.439Z,3.67
2022-09-04T21:33:24.638Z,3.87
2022-09-04T21:36:26.570Z,3.70
2022-09-04T21:39:41.028Z,3.97
2022-09-04T21:42:40.486Z,4.50
2022-09-04T21:45:37.562Z,4.80
2022-09-04T21:48:35.423Z,4.93
2022-09-04T21:51:35.694Z,4.87
2022-09-04T21:54:38.328Z,4.17
2022-09-04T22:02:28.913Z,4.20
2022-09-04T22:02:37.308Z,3.90
2022-09-04T22:04:44.743Z,4.93
2022-09-04T22:11:12.219Z,4.37
2022-09-04T22:13:46.418Z,4.47
2022-09-04T22:14:12.059Z,3.93
2022-09-04T22:17:13.045Z,3.80
2022-09-04T22:20:40.912Z,4.00
2022-09-04T22:23:50.813Z,4.10
2022-09-04T22:26:51.191Z,3.90
2022-09-04T22:29:58.072Z,3.63
2022-09-04T22:33:05.373Z,4.57
2022-09-04T22:36:13.514Z,4.17
2022-09-04T22:39:11.125Z,4.30
2022-09-04T22:42:20.573Z,3.90
2022-09-04T22:45:30.858Z,4.47
2022-09-04T22:48:30.665Z,4.50
2022-09-04T22:51:28.959Z,4.57
2022-09-04T22:54:28.983Z,4.93
2022-09-04T22:57:21.334Z,4.20
2022-09-04T23:00:11.874Z,3.57
2022-09-04T23:03:13.903Z,3.53
2022-09-04T23:10:17.123Z,4.10
2022-09-04T23:13:47.526Z,4.40
2022-09-04T23:14:01.025Z,4.10
2022-09-04T23:16:26.254Z,4.20
2022-09-04T23:20:22.425Z,4.60
2022-09-04T23:26:34.067Z,4.40
2022-09-04T23:26:46.819Z,4.60
2022-09-04T23:29:40.973Z,4.93
2022-09-04T23:32:54.401Z,3.60
2022-09-04T23:35:47.835Z,5.00
2022-09-04T23:39:03.502Z,4.60
2022-09-04T23:41:58.087Z,4.40
2022-09-04T23:45:02.512Z,5.07
2022-09-04T23:48:09.091Z,4.93
2022-09-04T23:51:02.807Z,4.07
2022-09-04T23:53:56.205Z,3.90
2022-09-04T23:56:47.215Z,4.47
2022-09-04T23:59:39.738Z,4.57
